sensor_id;sensor_type;location;lat;lon;timestamp;temperature;humidity
12384;DHT22;6256;63.808;20.336;2024-01-06T00:01:11;-21.30;99.90
12384;DHT22;6256;63.808;20.336;2024-01-06T00:03:37;-21.30;99.90
12384;DHT22;6256;63.808;20.336;2024-01-06T00:06:03;-21.30;99.90
12384;DHT22;6256;63.808;20.336;2024-01-06T00:08:29;-21.30;99.90
12384;DHT22;6256;63.808;20.336;2024-01-06T00:10:55;-21.30;99.90
12384;DHT22;6256;63.808;20.336;2024-01-06T00:13:20;-21.30;99.90
12384;DHT22;6256;63.808;20.336;2024-01-06T00:15:46;-21.30;99.90
12384;DHT22;6256;63.808;20.336;2024-01-06T00:18:12;-21.30;99.90
12384;DHT22;6256;63.808;20.336;2024-01-06T00:20:38;-21.30;99.90
12384;DHT22;6256;63.808;20.336;2024-01-06T00:23:04;-21.40;99.90
12384;DHT22;6256;63.808;20.336;2024-01-06T00:25:30;-21.40;99.90
12384;DHT22;6256;63.808;20.336;2024-01-06T00:27:55;-21.40;99.90
12384;DHT22;6256;63.808;20.336;2024-01-06T00:30:21;-21.50;99.90
12384;DHT22;6256;63.808;20.336;2024-01-06T00:32:47;-21.60;99.90
12384;DHT22;6256;63.808;20.336;2024-01-06T00:35:12;-21.60;99.90
12384;DHT22;6256;63.808;20.336;2024-01-06T00:37:38;-21.70;99.90
12384;DHT22;6256;63.808;20.336;2024-01-06T00:40:04;-21.70;99.90
12384;DHT22;6256;63.808;20.336;2024-01-06T00:42:30;-21.70;99.90
12384;DHT22;6256;63.808;20.336;2024-01-06T00:44:55;-21.60;99.90
12384;DHT22;6256;63.808;20.336;2024-01-06T00:47:21;-21.60;99.90
12384;DHT22;6256;63.808;20.336;2024-01-06T00:49:49;-21.70;99.90
12384;DHT22;6256;63.808;20.336;2024-01-06T00:52:15;-21.70;99.90
12384;DHT22;6256;63.808;20.336;2024-01-06T00:54:41;-21.60;99.90
12384;DHT22;6256;63.808;20.336;2024-01-06T00:57:06;-21.60;99.90
12384;DHT22;6256;63.808;20.336;2024-01-06T00:59:35;-21.50;99.90
12384;DHT22;6256;63.808;20.336;2024-01-06T01:02:01;-21.50;99.90
12384;DHT22;6256;63.808;20.336;2024-01-06T01:04:26;-21.50;99.90
12384;DHT22;6256;63.808;20.336;2024-01-06T01:06:52;-21.60;99.90
12384;DHT22;6256;63.808;20.336;2024-01-06T01:09:18;-21.70;99.90
12384;DHT22;6256;63.808;20.336;2024-01-06T01:11:43;-21.60;99.90
12384;DHT22;6256;63.808;20.336;2024-01-06T01:14:09;-21.60;99.90
12384;DHT22;6256;63.808;20.336;2024-01-06T01:16:35;-21.60;99.90
12384;DHT22;6256;63.808;20.336;2024-01-06T01:19:00;-21.60;99.90
12384;DHT22;6256;63.808;20.336;2024-01-06T01:21:27;-21.60;99.90
12384;DHT22;6256;63.808;20.336;2024-01-06T01:23:53;-21.60;99.90
12384;DHT22;6256;63.808;20.336;2024-01-06T01:26:19;-21.70;99.90
12384;DHT22;6256;63.808;20.336;2024-01-06T01:28:44;-21.80;99.90
12384;DHT22;6256;63.808;20.336;2024-01-06T01:31:10;-21.80;99.90
12384;DHT22;6256;63.808;20.336;2024-01-06T01:33:36;-21.80;99.90
12384;DHT22;6256;63.808;20.336;2024-01-06T01:36:01;-21.70;99.90
12384;DHT22;6256;63.808;20.336;2024-01-06T01:38:27;-21.80;99.90
12384;DHT22;6256;63.808;20.336;2024-01-06T01:40:53;-21.80;99.90
12384;DHT22;6256;63.808;20.336;2024-01-06T01:43:19;-21.80;99.90
12384;DHT22;6256;63.808;20.336;2024-01-06T01:45:48;-21.80;99.90
12384;DHT22;6256;63.808;20.336;2024-01-06T01:48:15;-21.80;99.90
12384;DHT22;6256;63.808;20.336;2024-01-06T01:50:41;-21.80;99.90
12384;DHT22;6256;63.808;20.336;2024-01-06T01:53:06;-21.80;99.90
12384;DHT22;6256;63.808;20.336;2024-01-06T01:55:32;-21.70;99.90
12384;DHT22;6256;63.808;20.336;2024-01-06T01:57:58;-21.70;99.90
12384;DHT22;6256;63.808;20.336;2024-01-06T02:00:24;-21.70;99.90
12384;DHT22;6256;63.808;20.336;2024-01-06T02:02:50;-21.70;99.90
12384;DHT22;6256;63.808;20.336;2024-01-06T02:05:16;-21.60;99.90
12384;DHT22;6256;63.808;20.336;2024-01-06T02:07:41;-21.60;99.90
12384;DHT22;6256;63.808;20.336;2024-01-06T02:10:08;-21.60;99.90
12384;DHT22;6256;63.808;20.336;2024-01-06T02:12:33;-21.50;99.90
12384;DHT22;6256;63.808;20.336;2024-01-06T02:14:59;-21.40;99.90
12384;DHT22;6256;63.808;20.336;2024-01-06T02:17:25;-21.30;99.90
12384;DHT22;6256;63.808;20.336;2024-01-06T02:19:51;-21.20;99.90
12384;DHT22;6256;63.808;20.336;2024-01-06T02:22:17;-21.10;99.90
12384;DHT22;6256;63.808;20.336;2024-01-06T02:24:42;-21.00;99.90
12384;DHT22;6256;63.808;20.336;2024-01-06T02:27:08;-20.90;99.90
12384;DHT22;6256;63.808;20.336;2024-01-06T02:29:33;-20.80;99.90
12384;DHT22;6256;63.808;20.336;2024-01-06T02:31:59;-20.80;99.90
12384;DHT22;6256;63.808;20.336;2024-01-06T02:34:25;-20.60;99.90
12384;DHT22;6256;63.808;20.336;2024-01-06T02:36:50;-20.50;99.90
12384;DHT22;6256;63.808;20.336;2024-01-06T02:39:16;-20.40;99.90
12384;DHT22;6256;63.808;20.336;2024-01-06T02:41:42;-20.50;99.90
12384;DHT22;6256;63.808;20.336;2024-01-06T02:44:07;-20.40;99.90
12384;DHT22;6256;63.808;20.336;2024-01-06T02:46:34;-20.40;99.90
12384;DHT22;6256;63.808;20.336;2024-01-06T02:48:59;-20.30;99.90
12384;DHT22;6256;63.808;20.336;2024-01-06T02:51:25;-20.20;99.90
12384;DHT22;6256;63.808;20.336;2024-01-06T02:53:51;-20.10;99.90
12384;DHT22;6256;63.808;20.336;2024-01-06T02:56:16;-20.00;99.90
12384;DHT22;6256;63.808;20.336;2024-01-06T02:58:42;-19.90;99.90
12384;DHT22;6256;63.808;20.336;2024-01-06T03:01:08;-19.80;99.90
12384;DHT22;6256;63.808;20.336;2024-01-06T03:03:34;-19.70;99.90
12384;DHT22;6256;63.808;20.336;2024-01-06T03:05:59;-19.60;99.90
12384;DHT22;6256;63.808;20.336;2024-01-06T03:08:25;-19.60;99.90
12384;DHT22;6256;63.808;20.336;2024-01-06T03:10:51;-19.50;99.90
12384;DHT22;6256;63.808;20.336;2024-01-06T03:13:16;-19.50;99.90
12384;DHT22;6256;63.808;20.336;2024-01-06T03:15:42;-19.40;99.90
12384;DHT22;6256;63.808;20.336;2024-01-06T03:18:08;-19.40;99.90
12384;DHT22;6256;63.808;20.336;2024-01-06T03:20:34;-19.30;99.90
12384;DHT22;6256;63.808;20.336;2024-01-06T03:22:59;-19.20;99.90
12384;DHT22;6256;63.808;20.336;2024-01-06T03:25:25;-19.10;99.90
12384;DHT22;6256;63.808;20.336;2024-01-06T03:27:51;-19.10;99.90
12384;DHT22;6256;63.808;20.336;2024-01-06T03:30:16;-19.00;99.90
12384;DHT22;6256;63.808;20.336;2024-01-06T03:32:42;-18.90;99.90
12384;DHT22;6256;63.808;20.336;2024-01-06T03:35:08;-18.80;99.90
12384;DHT22;6256;63.808;20.336;2024-01-06T03:37:33;-18.70;99.90
12384;DHT22;6256;63.808;20.336;2024-01-06T03:39:59;-18.60;99.90
12384;DHT22;6256;63.808;20.336;2024-01-06T03:42:25;-18.50;99.90
12384;DHT22;6256;63.808;20.336;2024-01-06T03:44:50;-18.50;99.90
12384;DHT22;6256;63.808;20.336;2024-01-06T03:47:16;-18.40;99.90
12384;DHT22;6256;63.808;20.336;2024-01-06T03:49:42;-18.30;99.90
12384;DHT22;6256;63.808;20.336;2024-01-06T03:52:10;-18.30;99.90
12384;DHT22;6256;63.808;20.336;2024-01-06T03:54:36;-18.20;99.90
12384;DHT22;6256;63.808;20.336;2024-01-06T03:57:02;-18.10;99.90
12384;DHT22;6256;63.808;20.336;2024-01-06T03:59:27;-18.10;99.90
12384;DHT22;6256;63.808;20.336;2024-01-06T04:01:53;-18.00;99.90
12384;DHT22;6256;63.808;20.336;2024-01-06T04:04:20;-18.00;99.90
12384;DHT22;6256;63.808;20.336;2024-01-06T04:06:45;-17.90;99.90
12384;DHT22;6256;63.808;20.336;2024-01-06T04:09:11;-17.80;99.90
12384;DHT22;6256;63.808;20.336;2024-01-06T04:11:37;-17.80;99.90
12384;DHT22;6256;63.808;20.336;2024-01-06T04:14:03;-17.80;99.90
12384;DHT22;6256;63.808;20.336;2024-01-06T04:16:29;-17.70;99.90
12384;DHT22;6256;63.808;20.336;2024-01-06T04:18:54;-17.70;99.90
12384;DHT22;6256;63.808;20.336;2024-01-06T04:21:20;-17.60;99.90
12384;DHT22;6256;63.808;20.336;2024-01-06T04:23:46;-17.60;99.90
12384;DHT22;6256;63.808;20.336;2024-01-06T04:26:11;-17.60;99.90
12384;DHT22;6256;63.808;20.336;2024-01-06T04:28:37;-17.60;99.90
12384;DHT22;6256;63.808;20.336;2024-01-06T04:31:03;-17.50;99.90
12384;DHT22;6256;63.808;20.336;2024-01-06T04:33:29;-17.50;99.90
12384;DHT22;6256;63.808;20.336;2024-01-06T04:35:54;-17.50;99.90
12384;DHT22;6256;63.808;20.336;2024-01-06T04:38:20;-17.40;99.90
12384;DHT22;6256;63.808;20.336;2024-01-06T04:40:46;-17.40;99.90
12384;DHT22;6256;63.808;20.336;2024-01-06T04:43:11;-17.30;99.90
12384;DHT22;6256;63.808;20.336;2024-01-06T04:45:37;-17.20;99.90
12384;DHT22;6256;63.808;20.336;2024-01-06T04:48:04;-17.10;99.90
12384;DHT22;6256;63.808;20.336;2024-01-06T04:50:30;-17.10;99.90
12384;DHT22;6256;63.808;20.336;2024-01-06T04:52:56;-17.00;99.90
12384;DHT22;6256;63.808;20.336;2024-01-06T04:55:21;-17.00;99.90
12384;DHT22;6256;63.808;20.336;2024-01-06T04:57:48;-16.90;99.90
12384;DHT22;6256;63.808;20.336;2024-01-06T05:00:15;-16.90;99.90
12384;DHT22;6256;63.808;20.336;2024-01-06T05:02:40;-16.90;99.90
12384;DHT22;6256;63.808;20.336;2024-01-06T05:05:07;-16.90;99.90
12384;DHT22;6256;63.808;20.336;2024-01-06T05:07:33;-16.90;99.90
12384;DHT22;6256;63.808;20.336;2024-01-06T05:09:58;-16.90;99.90
12384;DHT22;6256;63.808;20.336;2024-01-06T05:12:24;-16.90;99.90
12384;DHT22;6256;63.808;20.336;2024-01-06T05:14:49;-16.80;99.90
12384;DHT22;6256;63.808;20.336;2024-01-06T05:17:15;-16.80;99.90
12384;DHT22;6256;63.808;20.336;2024-01-06T05:19:41;-16.60;99.90
12384;DHT22;6256;63.808;20.336;2024-01-06T05:22:06;-16.60;99.90
12384;DHT22;6256;63.808;20.336;2024-01-06T05:24:32;-16.60;99.90
12384;DHT22;6256;63.808;20.336;2024-01-06T05:26:58;-16.50;99.90
12384;DHT22;6256;63.808;20.336;2024-01-06T05:29:24;-16.50;99.90
12384;DHT22;6256;63.808;20.336;2024-01-06T05:31:51;-16.50;99.90
12384;DHT22;6256;63.808;20.336;2024-01-06T05:34:17;-16.60;99.90
12384;DHT22;6256;63.808;20.336;2024-01-06T05:36:43;-16.60;99.90
12384;DHT22;6256;63.808;20.336;2024-01-06T05:39:08;-16.60;99.90
12384;DHT22;6256;63.808;20.336;2024-01-06T05:41:38;-16.60;99.90
12384;DHT22;6256;63.808;20.336;2024-01-06T05:44:05;-16.50;99.90
12384;DHT22;6256;63.808;20.336;2024-01-06T05:46:31;-16.50;99.90
12384;DHT22;6256;63.808;20.336;2024-01-06T05:48:56;-16.40;99.90
12384;DHT22;6256;63.808;20.336;2024-01-06T05:51:23;-16.30;99.90
12384;DHT22;6256;63.808;20.336;2024-01-06T05:53:48;-16.20;99.90
12384;DHT22;6256;63.808;20.336;2024-01-06T05:56:26;-16.20;99.90
12384;DHT22;6256;63.808;20.336;2024-01-06T05:58:53;-16.20;99.90
12384;DHT22;6256;63.808;20.336;2024-01-06T06:01:19;-16.10;99.90
12384;DHT22;6256;63.808;20.336;2024-01-06T06:03:46;-16.00;99.90
12384;DHT22;6256;63.808;20.336;2024-01-06T06:06:12;-16.00;99.90
12384;DHT22;6256;63.808;20.336;2024-01-06T06:08:40;-16.00;99.90
12384;DHT22;6256;63.808;20.336;2024-01-06T06:11:06;-16.00;99.90
12384;DHT22;6256;63.808;20.336;2024-01-06T06:13:37;-16.00;99.90
12384;DHT22;6256;63.808;20.336;2024-01-06T06:16:04;-15.90;99.90
12384;DHT22;6256;63.808;20.336;2024-01-06T06:18:30;-15.90;99.90
12384;DHT22;6256;63.808;20.336;2024-01-06T06:20:55;-15.90;99.90
12384;DHT22;6256;63.808;20.336;2024-01-06T06:23:21;-16.00;99.90
12384;DHT22;6256;63.808;20.336;2024-01-06T06:25:47;-16.00;99.90
12384;DHT22;6256;63.808;20.336;2024-01-06T06:28:13;-16.00;99.90
12384;DHT22;6256;63.808;20.336;2024-01-06T06:30:38;-16.00;99.90
12384;DHT22;6256;63.808;20.336;2024-01-06T06:33:04;-15.90;99.90
12384;DHT22;6256;63.808;20.336;2024-01-06T06:35:30;-16.00;99.90
12384;DHT22;6256;63.808;20.336;2024-01-06T06:37:56;-15.90;99.90
12384;DHT22;6256;63.808;20.336;2024-01-06T06:40:21;-15.90;99.90
12384;DHT22;6256;63.808;20.336;2024-01-06T06:42:47;-15.90;99.90
12384;DHT22;6256;63.808;20.336;2024-01-06T06:45:13;-15.90;99.90
12384;DHT22;6256;63.808;20.336;2024-01-06T06:47:39;-15.80;99.90
12384;DHT22;6256;63.808;20.336;2024-01-06T06:50:05;-15.80;99.90
12384;DHT22;6256;63.808;20.336;2024-01-06T06:52:31;-15.70;99.90
12384;DHT22;6256;63.808;20.336;2024-01-06T06:54:56;-15.70;99.90
12384;DHT22;6256;63.808;20.336;2024-01-06T06:57:23;-15.60;99.90
12384;DHT22;6256;63.808;20.336;2024-01-06T06:59:49;-15.60;99.90
12384;DHT22;6256;63.808;20.336;2024-01-06T07:02:15;-15.50;99.90
12384;DHT22;6256;63.808;20.336;2024-01-06T07:04:40;-15.50;99.90
12384;DHT22;6256;63.808;20.336;2024-01-06T07:07:06;-15.50;99.90
12384;DHT22;6256;63.808;20.336;2024-01-06T07:09:32;-15.40;99.90
12384;DHT22;6256;63.808;20.336;2024-01-06T07:11:57;-15.40;99.90
12384;DHT22;6256;63.808;20.336;2024-01-06T07:14:23;-15.30;99.90
12384;DHT22;6256;63.808;20.336;2024-01-06T07:16:49;-15.30;99.90
12384;DHT22;6256;63.808;20.336;2024-01-06T07:19:15;-15.30;99.90
12384;DHT22;6256;63.808;20.336;2024-01-06T07:21:46;-15.40;99.90
12384;DHT22;6256;63.808;20.336;2024-01-06T07:24:12;-15.40;99.90
12384;DHT22;6256;63.808;20.336;2024-01-06T07:26:38;-15.40;99.90
12384;DHT22;6256;63.808;20.336;2024-01-06T07:29:04;-15.40;99.90
12384;DHT22;6256;63.808;20.336;2024-01-06T07:31:30;-15.30;99.90
12384;DHT22;6256;63.808;20.336;2024-01-06T07:33:56;-15.30;99.90
12384;DHT22;6256;63.808;20.336;2024-01-06T07:36:22;-15.20;99.90
12384;DHT22;6256;63.808;20.336;2024-01-06T07:38:48;-15.20;99.90
12384;DHT22;6256;63.808;20.336;2024-01-06T07:41:14;-15.10;99.90
12384;DHT22;6256;63.808;20.336;2024-01-06T07:43:39;-15.10;99.90
12384;DHT22;6256;63.808;20.336;2024-01-06T07:46:05;-15.10;99.90
12384;DHT22;6256;63.808;20.336;2024-01-06T07:48:32;-15.10;99.90
12384;DHT22;6256;63.808;20.336;2024-01-06T07:50:58;-15.00;99.90
12384;DHT22;6256;63.808;20.336;2024-01-06T07:53:23;-15.00;99.90
12384;DHT22;6256;63.808;20.336;2024-01-06T07:55:49;-15.00;99.90
12384;DHT22;6256;63.808;20.336;2024-01-06T07:58:14;-15.00;99.90
12384;DHT22;6256;63.808;20.336;2024-01-06T08:00:41;-14.90;99.90
12384;DHT22;6256;63.808;20.336;2024-01-06T08:03:07;-14.90;99.90
12384;DHT22;6256;63.808;20.336;2024-01-06T08:05:36;-14.90;99.90
12384;DHT22;6256;63.808;20.336;2024-01-06T08:08:03;-14.80;99.90
12384;DHT22;6256;63.808;20.336;2024-01-06T08:10:29;-14.80;99.90
12384;DHT22;6256;63.808;20.336;2024-01-06T08:12:57;-14.80;99.90
12384;DHT22;6256;63.808;20.336;2024-01-06T08:15:22;-14.80;99.90
12384;DHT22;6256;63.808;20.336;2024-01-06T08:17:48;-14.80;99.90
12384;DHT22;6256;63.808;20.336;2024-01-06T08:20:14;-14.70;99.90
12384;DHT22;6256;63.808;20.336;2024-01-06T08:22:39;-14.70;99.90
12384;DHT22;6256;63.808;20.336;2024-01-06T08:25:05;-14.70;99.90
12384;DHT22;6256;63.808;20.336;2024-01-06T08:27:34;-14.70;99.90
12384;DHT22;6256;63.808;20.336;2024-01-06T08:30:00;-14.60;99.90
12384;DHT22;6256;63.808;20.336;2024-01-06T08:32:26;-14.60;99.90
12384;DHT22;6256;63.808;20.336;2024-01-06T08:34:52;-14.50;99.90
12384;DHT22;6256;63.808;20.336;2024-01-06T08:37:18;-14.50;99.90
12384;DHT22;6256;63.808;20.336;2024-01-06T08:39:43;-14.40;99.90
12384;DHT22;6256;63.808;20.336;2024-01-06T08:42:09;-14.40;99.90
12384;DHT22;6256;63.808;20.336;2024-01-06T08:44:35;-14.30;99.90
12384;DHT22;6256;63.808;20.336;2024-01-06T08:47:00;-14.30;99.90
12384;DHT22;6256;63.808;20.336;2024-01-06T08:49:26;-14.30;99.90
12384;DHT22;6256;63.808;20.336;2024-01-06T08:51:51;-14.20;99.90
12384;DHT22;6256;63.808;20.336;2024-01-06T08:54:17;-14.20;99.90
12384;DHT22;6256;63.808;20.336;2024-01-06T08:56:43;-14.10;99.90
12384;DHT22;6256;63.808;20.336;2024-01-06T08:59:08;-14.10;99.90
12384;DHT22;6256;63.808;20.336;2024-01-06T09:01:34;-14.10;99.90
12384;DHT22;6256;63.808;20.336;2024-01-06T09:04:02;-14.10;99.90
12384;DHT22;6256;63.808;20.336;2024-01-06T09:06:28;-14.00;99.90
12384;DHT22;6256;63.808;20.336;2024-01-06T09:08:53;-14.00;99.90
12384;DHT22;6256;63.808;20.336;2024-01-06T09:11:19;-14.00;99.90
12384;DHT22;6256;63.808;20.336;2024-01-06T09:13:45;-13.90;99.90
12384;DHT22;6256;63.808;20.336;2024-01-06T09:16:10;-13.90;99.90
12384;DHT22;6256;63.808;20.336;2024-01-06T09:18:38;-13.90;99.90
12384;DHT22;6256;63.808;20.336;2024-01-06T09:21:03;-14.00;99.90
12384;DHT22;6256;63.808;20.336;2024-01-06T09:23:29;-13.90;99.90
12384;DHT22;6256;63.808;20.336;2024-01-06T09:25:57;-13.80;99.90
12384;DHT22;6256;63.808;20.336;2024-01-06T09:28:22;-13.70;99.90
12384;DHT22;6256;63.808;20.336;2024-01-06T09:30:48;-13.60;99.90
12384;DHT22;6256;63.808;20.336;2024-01-06T09:33:14;-13.50;99.90
12384;DHT22;6256;63.808;20.336;2024-01-06T09:35:41;-13.50;99.90
12384;DHT22;6256;63.808;20.336;2024-01-06T09:38:07;-13.50;99.90
12384;DHT22;6256;63.808;20.336;2024-01-06T09:40:34;-13.50;99.90
12384;DHT22;6256;63.808;20.336;2024-01-06T09:43:00;-13.40;99.90
12384;DHT22;6256;63.808;20.336;2024-01-06T09:45:28;-13.40;99.90
12384;DHT22;6256;63.808;20.336;2024-01-06T09:47:54;-13.40;99.90
12384;DHT22;6256;63.808;20.336;2024-01-06T09:50:21;-13.30;99.90
12384;DHT22;6256;63.808;20.336;2024-01-06T09:52:48;-13.20;99.90
12384;DHT22;6256;63.808;20.336;2024-01-06T09:55:26;-13.20;99.90
12384;DHT22;6256;63.808;20.336;2024-01-06T09:57:53;-13.10;99.90
12384;DHT22;6256;63.808;20.336;2024-01-06T10:00:20;-13.10;99.90
12384;DHT22;6256;63.808;20.336;2024-01-06T10:02:47;-13.10;99.90
12384;DHT22;6256;63.808;20.336;2024-01-06T10:05:15;-13.20;99.90
12384;DHT22;6256;63.808;20.336;2024-01-06T10:07:45;-13.10;99.90
12384;DHT22;6256;63.808;20.336;2024-01-06T10:10:11;-13.10;99.90
12384;DHT22;6256;63.808;20.336;2024-01-06T10:12:40;-13.00;99.90
12384;DHT22;6256;63.808;20.336;2024-01-06T10:15:08;-12.90;99.90
12384;DHT22;6256;63.808;20.336;2024-01-06T10:17:37;-12.80;99.90
12384;DHT22;6256;63.808;20.336;2024-01-06T10:20:15;-12.80;99.90
12384;DHT22;6256;63.808;20.336;2024-01-06T10:22:43;-12.80;99.90
12384;DHT22;6256;63.808;20.336;2024-01-06T10:25:10;-12.80;99.90
12384;DHT22;6256;63.808;20.336;2024-01-06T10:27:40;-12.80;99.90
12384;DHT22;6256;63.808;20.336;2024-01-06T10:30:10;-12.70;99.90
12384;DHT22;6256;63.808;20.336;2024-01-06T10:32:36;-12.70;99.90
12384;DHT22;6256;63.808;20.336;2024-01-06T10:35:11;-12.70;99.90
12384;DHT22;6256;63.808;20.336;2024-01-06T10:37:37;-12.70;99.90
12384;DHT22;6256;63.808;20.336;2024-01-06T10:40:10;-12.80;99.90
12384;DHT22;6256;63.808;20.336;2024-01-06T10:42:36;-12.70;99.90
12384;DHT22;6256;63.808;20.336;2024-01-06T10:45:07;-12.70;99.90
12384;DHT22;6256;63.808;20.336;2024-01-06T10:47:40;-12.60;99.90
12384;DHT22;6256;63.808;20.336;2024-01-06T10:50:07;-12.60;99.90
12384;DHT22;6256;63.808;20.336;2024-01-06T10:52:39;-12.70;99.90
12384;DHT22;6256;63.808;20.336;2024-01-06T10:55:05;-12.70;99.90
12384;DHT22;6256;63.808;20.336;2024-01-06T10:57:31;-12.80;99.90
12384;DHT22;6256;63.808;20.336;2024-01-06T10:59:58;-12.80;99.90
12384;DHT22;6256;63.808;20.336;2024-01-06T11:02:25;-12.80;99.90
12384;DHT22;6256;63.808;20.336;2024-01-06T11:04:51;-12.80;99.90
12384;DHT22;6256;63.808;20.336;2024-01-06T11:07:19;-12.70;99.90
12384;DHT22;6256;63.808;20.336;2024-01-06T11:12:21;-12.70;99.90
12384;DHT22;6256;63.808;20.336;2024-01-06T11:14:47;-12.80;99.90
12384;DHT22;6256;63.808;20.336;2024-01-06T11:17:13;-12.70;99.90
12384;DHT22;6256;63.808;20.336;2024-01-06T11:22:29;-12.70;99.90
12384;DHT22;6256;63.808;20.336;2024-01-06T11:25:06;-12.70;99.90
12384;DHT22;6256;63.808;20.336;2024-01-06T11:27:33;-12.70;99.90
12384;DHT22;6256;63.808;20.336;2024-01-06T11:30:02;-12.70;99.90
12384;DHT22;6256;63.808;20.336;2024-01-06T11:32:39;-12.70;99.90
12384;DHT22;6256;63.808;20.336;2024-01-06T11:35:10;-12.70;99.90
12384;DHT22;6256;63.808;20.336;2024-01-06T11:40:15;-12.60;99.90
12384;DHT22;6256;63.808;20.336;2024-01-06T11:42:42;-12.60;99.90
12384;DHT22;6256;63.808;20.336;2024-01-06T11:45:08;-12.50;99.90
12384;DHT22;6256;63.808;20.336;2024-01-06T11:47:35;-12.50;99.90
12384;DHT22;6256;63.808;20.336;2024-01-06T11:50:02;-12.40;99.90
12384;DHT22;6256;63.808;20.336;2024-01-06T11:52:31;-12.40;99.90
12384;DHT22;6256;63.808;20.336;2024-01-06T11:54:56;-12.40;99.90
12384;DHT22;6256;63.808;20.336;2024-01-06T11:57:22;-12.40;99.90
12384;DHT22;6256;63.808;20.336;2024-01-06T11:59:48;-12.50;99.90
12384;DHT22;6256;63.808;20.336;2024-01-06T12:02:17;-12.60;99.90
12384;DHT22;6256;63.808;20.336;2024-01-06T12:04:51;-12.70;99.90
12384;DHT22;6256;63.808;20.336;2024-01-06T12:07:18;-12.80;99.90
12384;DHT22;6256;63.808;20.336;2024-01-06T12:09:45;-12.90;99.90
12384;DHT22;6256;63.808;20.336;2024-01-06T12:12:15;-12.90;99.90
12384;DHT22;6256;63.808;20.336;2024-01-06T12:14:41;-12.80;99.90
12384;DHT22;6256;63.808;20.336;2024-01-06T12:17:12;-12.80;99.90
12384;DHT22;6256;63.808;20.336;2024-01-06T12:19:39;-12.90;99.90
12384;DHT22;6256;63.808;20.336;2024-01-06T12:22:09;-12.90;99.90
12384;DHT22;6256;63.808;20.336;2024-01-06T12:24:35;-12.80;99.90
12384;DHT22;6256;63.808;20.336;2024-01-06T12:27:01;-12.70;99.90
12384;DHT22;6256;63.808;20.336;2024-01-06T12:29:27;-12.70;99.90
12384;DHT22;6256;63.808;20.336;2024-01-06T12:31:54;-12.70;99.90
12384;DHT22;6256;63.808;20.336;2024-01-06T12:34:20;-12.80;99.90
12384;DHT22;6256;63.808;20.336;2024-01-06T12:36:46;-12.80;99.90
12384;DHT22;6256;63.808;20.336;2024-01-06T12:39:13;-12.90;99.90
12384;DHT22;6256;63.808;20.336;2024-01-06T12:41:42;-12.80;99.90
12384;DHT22;6256;63.808;20.336;2024-01-06T12:44:09;-12.80;99.90
12384;DHT22;6256;63.808;20.336;2024-01-06T12:46:35;-12.80;99.90
12384;DHT22;6256;63.808;20.336;2024-01-06T12:49:01;-12.90;99.90
12384;DHT22;6256;63.808;20.336;2024-01-06T12:51:27;-12.90;99.90
12384;DHT22;6256;63.808;20.336;2024-01-06T12:53:53;-12.80;99.90
12384;DHT22;6256;63.808;20.336;2024-01-06T12:56:19;-12.80;99.90
12384;DHT22;6256;63.808;20.336;2024-01-06T12:58:45;-12.80;99.90
12384;DHT22;6256;63.808;20.336;2024-01-06T13:01:11;-12.90;99.90
12384;DHT22;6256;63.808;20.336;2024-01-06T13:03:36;-13.00;99.90
12384;DHT22;6256;63.808;20.336;2024-01-06T13:06:02;-13.10;99.90
12384;DHT22;6256;63.808;20.336;2024-01-06T13:08:28;-13.10;99.90
12384;DHT22;6256;63.808;20.336;2024-01-06T13:10:55;-13.10;99.90
12384;DHT22;6256;63.808;20.336;2024-01-06T13:13:21;-13.00;99.90
12384;DHT22;6256;63.808;20.336;2024-01-06T13:15:47;-13.00;99.90
12384;DHT22;6256;63.808;20.336;2024-01-06T13:18:13;-13.00;99.90
12384;DHT22;6256;63.808;20.336;2024-01-06T13:20:41;-13.00;99.90
12384;DHT22;6256;63.808;20.336;2024-01-06T13:23:07;-13.00;99.90
12384;DHT22;6256;63.808;20.336;2024-01-06T13:25:34;-12.90;99.90
12384;DHT22;6256;63.808;20.336;2024-01-06T13:28:00;-13.00;99.90
12384;DHT22;6256;63.808;20.336;2024-01-06T13:30:26;-13.00;99.90
12384;DHT22;6256;63.808;20.336;2024-01-06T13:32:52;-13.00;99.90
12384;DHT22;6256;63.808;20.336;2024-01-06T13:35:20;-13.10;99.90
12384;DHT22;6256;63.808;20.336;2024-01-06T13:37:46;-13.10;99.90
12384;DHT22;6256;63.808;20.336;2024-01-06T13:40:14;-13.10;99.90
12384;DHT22;6256;63.808;20.336;2024-01-06T13:42:40;-13.20;99.90
12384;DHT22;6256;63.808;20.336;2024-01-06T13:45:06;-13.30;99.90
12384;DHT22;6256;63.808;20.336;2024-01-06T13:47:32;-13.30;99.90
12384;DHT22;6256;63.808;20.336;2024-01-06T13:49:58;-13.30;99.90
12384;DHT22;6256;63.808;20.336;2024-01-06T13:52:24;-13.40;99.90
12384;DHT22;6256;63.808;20.336;2024-01-06T13:54:50;-13.40;99.90
12384;DHT22;6256;63.808;20.336;2024-01-06T13:57:16;-13.50;99.90
12384;DHT22;6256;63.808;20.336;2024-01-06T13:59:41;-13.60;99.90
12384;DHT22;6256;63.808;20.336;2024-01-06T14:02:10;-13.70;99.90
12384;DHT22;6256;63.808;20.336;2024-01-06T14:04:36;-13.70;99.90
12384;DHT22;6256;63.808;20.336;2024-01-06T14:07:02;-13.80;99.90
12384;DHT22;6256;63.808;20.336;2024-01-06T14:09:28;-13.80;99.90
12384;DHT22;6256;63.808;20.336;2024-01-06T14:11:53;-13.80;99.90
12384;DHT22;6256;63.808;20.336;2024-01-06T14:14:20;-13.70;99.90
12384;DHT22;6256;63.808;20.336;2024-01-06T14:16:46;-13.80;99.90
12384;DHT22;6256;63.808;20.336;2024-01-06T14:19:13;-13.80;99.90
12384;DHT22;6256;63.808;20.336;2024-01-06T14:21:39;-13.80;99.90
12384;DHT22;6256;63.808;20.336;2024-01-06T14:24:05;-13.90;99.90
12384;DHT22;6256;63.808;20.336;2024-01-06T14:26:32;-13.90;99.90
12384;DHT22;6256;63.808;20.336;2024-01-06T14:28:58;-13.90;99.90
12384;DHT22;6256;63.808;20.336;2024-01-06T14:31:25;-13.80;99.90
12384;DHT22;6256;63.808;20.336;2024-01-06T14:33:52;-13.80;99.90
12384;DHT22;6256;63.808;20.336;2024-01-06T14:36:18;-13.90;99.90
12384;DHT22;6256;63.808;20.336;2024-01-06T14:38:44;-13.80;99.90
12384;DHT22;6256;63.808;20.336;2024-01-06T14:41:09;-13.80;99.90
12384;DHT22;6256;63.808;20.336;2024-01-06T14:43:35;-13.70;99.90
12384;DHT22;6256;63.808;20.336;2024-01-06T14:46:01;-13.70;99.90
12384;DHT22;6256;63.808;20.336;2024-01-06T14:48:26;-13.70;99.90
12384;DHT22;6256;63.808;20.336;2024-01-06T14:50:52;-13.80;99.90
12384;DHT22;6256;63.808;20.336;2024-01-06T14:53:18;-13.80;99.90
12384;DHT22;6256;63.808;20.336;2024-01-06T14:55:44;-13.80;99.90
12384;DHT22;6256;63.808;20.336;2024-01-06T14:58:09;-13.70;99.90
12384;DHT22;6256;63.808;20.336;2024-01-06T15:00:36;-13.70;99.90
12384;DHT22;6256;63.808;20.336;2024-01-06T15:03:02;-13.70;99.90
12384;DHT22;6256;63.808;20.336;2024-01-06T15:05:28;-13.60;99.90
12384;DHT22;6256;63.808;20.336;2024-01-06T15:07:55;-13.60;99.90
12384;DHT22;6256;63.808;20.336;2024-01-06T15:10:21;-13.60;99.90
12384;DHT22;6256;63.808;20.336;2024-01-06T15:12:47;-13.50;99.90
12384;DHT22;6256;63.808;20.336;2024-01-06T15:15:13;-13.50;99.90
12384;DHT22;6256;63.808;20.336;2024-01-06T15:17:39;-13.50;99.90